Terminal Aerodrome Forecast
Issued by NWS

Home | Current Version | Previous Version | Text Only | Print | Product List | Glossary Off
Versions: 1 2 3 4 5 6 7 8 9 10 11 12 13 14

000
FTUS43 KGRB 201700
TAFCWA
TAF
KCWA 201735Z 2018/2118 20012G18KT P6SM SCT040 SCT060
     FM202300 21007KT P6SM SCT060
     FM210800 17005KT 6SM BR SCT250=

USA.gov is the U.S. government's official web portal to all federal, state and local government web resources and services.